Time;durP1;ratioP1;P1;durP2;ratioP2;P2;SDS_P1;SDS_P2;PMS_P1;PMS_P2;Temp;Humidity;BMP_temperature;BMP_pressure;BME280_temperature;BME280_humidity;BME280_pressure;Samples;Min_cycle;Max_cycle;Signal;HPM_P1;HPM_P2
2023/03/29 00:01:57;;;;;;;9.68;6.05;;;102.80;2227.20;;;;;;4996893;28;20038;-80
2023/03/29 00:04:26;;;;;;;11.00;6.25;;;102.70;2227.20;;;;;;4996553;28;20509;-84
2023/03/29 00:06:53;;;;;;;11.50;6.43;;;102.80;2227.20;;;;;;4997074;28;20030;-84
2023/03/29 00:09:19;;;;;;;11.10;5.85;;;102.70;2227.20;;;;;;5034100;28;20091;-84
2023/03/29 00:11:45;;;;;;;8.02;4.55;;;102.90;2227.20;;;;;;5033921;28;20022;-82
2023/03/29 00:14:12;;;;;;;11.63;6.53;;;102.50;2227.20;;;;;;5033991;28;20032;-82
2023/03/29 00:16:38;;;;;;;11.20;6.68;;;102.50;2227.20;;;;;;5033846;28;20036;-82
2023/03/29 00:19:04;;;;;;;10.02;6.22;;;102.50;2227.20;;;;;;5033767;28;20022;-83
2023/03/29 00:21:30;;;;;;;13.13;7.43;;;102.60;2227.20;;;;;;5034077;28;20032;-80
2023/03/29 00:23:57;;;;;;;9.30;5.20;;;102.60;2227.20;;;;;;5033627;28;20112;-83
2023/03/29 00:26:23;;;;;;;8.38;5.65;;;102.60;2227.20;;;;;;5033835;28;20030;-80
2023/03/29 00:28:49;;;;;;;11.27;6.00;;;102.70;2227.20;;;;;;5033302;28;20029;-81
2023/03/29 00:31:16;;;;;;;9.45;5.25;;;102.60;2227.20;;;;;;5035023;28;20049;-82
2023/03/29 00:33:42;;;;;;;10.45;5.75;;;103.00;2227.20;;;;;;5036672;28;20044;-81
2023/03/29 00:36:10;;;;;;;10.48;5.60;;;102.60;2227.20;;;;;;5036185;28;20442;-82
2023/03/29 00:38:36;;;;;;;12.10;5.75;;;102.70;2227.20;;;;;;5036542;28;20033;-83
2023/03/29 00:41:03;;;;;;;15.32;8.07;;;102.70;2227.20;;;;;;5036778;28;20047;-80
2023/03/29 00:43:29;;;;;;;14.85;6.70;;;102.80;2227.20;;;;;;5036926;28;20044;-82
2023/03/29 00:45:55;;;;;;;12.63;7.28;;;102.80;2227.20;;;;;;5036667;28;20384;-82
2023/03/29 00:48:28;;;;;;;10.90;6.38;;;102.80;2227.20;;;;;;5036670;28;20033;-81
2023/03/29 00:51:06;;;;;;;8.55;5.45;;;102.80;2227.20;;;;;;5036661;28;20025;-83
2023/03/29 00:53:36;;;;;;;9.05;4.88;;;102.80;2227.20;;;;;;5036718;28;20029;-82
2023/03/29 00:56:12;;;;;;;9.13;4.68;;;102.80;2227.20;;;;;;5036769;28;20025;-80
2023/03/29 00:58:57;;;;;;;7.63;5.72;;;102.70;2227.20;;;;;;5036649;28;20064;-83
2023/03/29 01:01:41;;;;;;;9.95;5.68;;;102.80;2227.20;;;;;;5036876;28;20074;-82
2023/03/29 01:04:17;;;;;;;10.60;5.40;;;102.80;2227.20;;;;;;5036776;28;20049;-83
2023/03/29 01:06:54;;;;;;;8.80;5.70;;;102.90;2227.20;;;;;;5036560;28;20025;-82
2023/03/29 01:09:23;;;;;;;9.25;5.07;;;103.00;2227.20;;;;;;5036700;28;20021;-82
2023/03/29 01:11:58;;;;;;;14.63;5.57;;;103.00;2227.20;;;;;;5036518;28;20021;-81
2023/03/29 01:14:50;;;;;;;11.30;6.03;;;103.00;2227.20;;;;;;5042579;28;20460;-82
2023/03/29 01:17:20;;;;;;;6.80;4.60;;;102.90;2227.20;;;;;;5048876;28;20037;-83
2023/03/29 01:19:56;;;;;;;9.95;4.53;;;103.00;2227.20;;;;;;5036339;28;20049;-82
2023/03/29 01:22:56;;;;;;;9.55;4.80;;;103.00;2227.20;;;;;;5036185;28;20479;-82
2023/03/29 01:26:16;;;;;;;6.90;4.72;;;103.00;2227.20;;;;;;5036288;28;20029;-86
2023/03/29 01:29:06;;;;;;;9.20;4.43;;;103.00;2227.20;;;;;;4995273;28;20501;-84
2023/03/29 01:31:37;;;;;;;10.73;5.25;;;102.90;2227.20;;;;;;5035097;28;20264;-82
2023/03/29 01:34:20;;;;;;;12.32;6.45;;;103.00;2227.20;;;;;;5035794;28;20029;-84
2023/03/29 01:36:59;;;;;;;12.88;7.35;;;103.00;2227.20;;;;;;5035821;28;20033;-83
2023/03/29 01:39:25;;;;;;;6.70;3.70;;;103.00;2227.20;;;;;;5038163;28;20031;-81
2023/03/29 01:42:35;;;;;;;5.97;4.40;;;102.90;2227.20;;;;;;5042278;28;20033;-84
2023/03/29 01:45:25;;;;;;;8.32;4.25;;;103.00;2227.20;;;;;;5023885;28;20033;-82
2023/03/29 01:48:02;;;;;;;10.48;4.95;;;102.80;2227.20;;;;;;5042234;28;20419;-83
2023/03/29 01:50:50;;;;;;;10.43;5.30;;;102.90;2227.20;;;;;;5042359;28;20032;-83
2023/03/29 01:53:24;;;;;;;17.17;8.35;;;102.90;2227.20;;;;;;5042495;28;20029;-84
2023/03/29 01:55:54;;;;;;;11.65;5.68;;;102.90;2227.20;;;;;;5042135;28;20026;-82
2023/03/29 01:58:27;;;;;;;8.07;4.43;;;102.90;2227.20;;;;;;5042262;28;20075;-82
2023/03/29 02:00:54;;;;;;;10.32;4.88;;;102.90;2227.20;;;;;;5042368;28;20468;-83
2023/03/29 02:03:23;;;;;;;13.82;6.88;;;102.90;2227.20;;;;;;5042124;28;20480;-82
2023/03/29 02:05:50;;;;;;;10.15;4.68;;;102.90;2227.20;;;;;;5042552;28;20063;-84
2023/03/29 02:08:17;;;;;;;7.40;4.85;;;102.90;2227.20;;;;;;5042688;28;20032;-82
2023/03/29 02:10:44;;;;;;;11.43;5.03;;;102.80;2227.20;;;;;;5041886;28;20468;-83
2023/03/29 02:13:10;;;;;;;8.95;4.03;;;102.90;2227.20;;;;;;5042396;28;20025;-81
2023/03/29 02:15:36;;;;;;;9.52;5.15;;;102.80;2227.20;;;;;;5042385;28;20029;-82
2023/03/29 02:18:02;;;;;;;9.07;4.80;;;102.80;2227.20;;;;;;5042337;28;20037;-83
2023/03/29 02:20:32;;;;;;;8.93;4.20;;;102.80;2227.20;;;;;;5041944;28;20029;-82
2023/03/29 02:23:23;;;;;;;8.73;3.92;;;102.80;2227.20;;;;;;5041749;28;20029;-83
2023/03/29 02:25:55;;;;;;;7.40;3.80;;;102.70;2227.20;;;;;;5042143;28;20021;-82
2023/03/29 02:28:23;;;;;;;6.97;3.95;;;102.70;2227.20;;;;;;5042460;28;20021;-83
2023/03/29 02:30:58;;;;;;;9.07;4.30;;;102.70;2227.20;;;;;;5041677;28;20026;-84
2023/03/29 02:33:33;;;;;;;8.68;4.30;;;102.80;2227.20;;;;;;5042102;28;20072;-83
2023/03/29 02:36:32;;;;;;;10.05;5.38;;;102.70;2227.20;;;;;;5042031;28;20021;-82
2023/03/29 02:39:02;;;;;;;8.73;4.28;;;102.70;2227.20;;;;;;5041850;28;20044;-80
2023/03/29 02:41:29;;;;;;;10.50;6.38;;;102.70;2227.20;;;;;;5042243;28;20071;-80
2023/03/29 02:43:57;;;;;;;8.00;4.55;;;102.60;2227.20;;;;;;5042726;28;20070;-81
2023/03/29 02:46:23;;;;;;;10.52;4.68;;;102.70;2227.20;;;;;;5042355;28;20057;-79
2023/03/29 02:48:52;;;;;;;9.00;5.07;;;102.50;2227.20;;;;;;5042668;28;20028;-79
2023/03/29 02:51:22;;;;;;;11.43;4.97;;;102.60;2227.20;;;;;;5039066;28;20025;-80
2023/03/29 02:53:59;;;;;;;11.02;4.60;;;102.60;2227.20;;;;;;5039554;28;20115;-79
2023/03/29 02:56:25;;;;;;;5.82;3.20;;;102.60;2227.20;;;;;;5039516;28;20075;-81
2023/03/29 02:58:51;;;;;;;7.05;4.18;;;102.60;2227.20;;;;;;5037472;28;20060;-80
2023/03/29 03:01:19;;;;;;;11.55;4.88;;;102.60;2227.20;;;;;;5039439;28;20032;-79
2023/03/29 03:03:46;;;;;;;34.78;12.98;;;102.70;2227.20;;;;;;5038502;28;20047;-79
2023/03/29 03:06:13;;;;;;;18.50;8.32;;;102.60;2227.20;;;;;;5038890;28;20365;-81
2023/03/29 03:08:39;;;;;;;12.60;6.28;;;102.60;2227.20;;;;;;5039268;28;20078;-81
2023/03/29 03:11:05;;;;;;;8.80;5.45;;;102.70;2227.20;;;;;;5038972;28;20029;-80
2023/03/29 03:13:31;;;;;;;9.30;4.70;;;102.60;2227.20;;;;;;5038922;28;20032;-80
2023/03/29 03:15:57;;;;;;;9.75;4.82;;;102.60;2227.20;;;;;;5039226;28;20029;-79
2023/03/29 03:18:23;;;;;;;9.10;5.13;;;102.60;2227.20;;;;;;5039123;28;20087;-81
2023/03/29 03:21:00;;;;;;;12.13;6.53;;;102.70;2227.20;;;;;;5038584;28;20024;-81
2023/03/29 03:23:27;;;;;;;10.35;6.20;;;102.70;2227.20;;;;;;5056635;28;20102;-79
2023/03/29 03:25:54;;;;;;;15.75;7.70;;;102.60;2227.20;;;;;;5038284;28;20029;-81
2023/03/29 03:28:20;;;;;;;12.02;7.10;;;102.60;2227.20;;;;;;5038818;28;20025;-80
2023/03/29 03:30:47;;;;;;;9.20;5.78;;;102.60;2227.20;;;;;;5038876;28;20036;-79
2023/03/29 03:33:13;;;;;;;10.80;6.50;;;102.50;2227.20;;;;;;5038761;28;20048;-79
2023/03/29 03:35:39;;;;;;;7.25;4.93;;;102.50;2227.20;;;;;;5038881;28;20358;-79
2023/03/29 03:38:05;;;;;;;16.42;7.57;;;102.40;2227.20;;;;;;5038876;28;20032;-81
2023/03/29 03:40:31;;;;;;;12.75;6.43;;;102.50;2227.20;;;;;;5038722;28;20025;-79
2023/03/29 03:42:57;;;;;;;9.75;4.45;;;102.50;2227.20;;;;;;5038558;28;20469;-80
2023/03/29 03:45:23;;;;;;;8.68;4.00;;;102.50;2227.20;;;;;;5038527;28;20123;-80
2023/03/29 03:47:52;;;;;;;8.88;4.45;;;102.50;2227.20;;;;;;5039370;28;20425;-79
2023/03/29 03:50:18;;;;;;;7.60;3.97;;;102.60;2227.20;;;;;;5039616;28;20079;-79
2023/03/29 03:52:44;;;;;;;7.90;4.28;;;102.50;2227.20;;;;;;5039368;28;20460;-80
2023/03/29 03:55:10;;;;;;;11.10;5.35;;;102.50;2227.20;;;;;;5039569;28;20123;-79
2023/03/29 03:57:36;;;;;;;7.88;4.35;;;102.40;2227.20;;;;;;5057393;28;20033;-80
2023/03/29 04:00:18;;;;;;;12.68;6.20;;;102.40;2227.20;;;;;;5041765;28;20029;-81
2023/03/29 04:02:46;;;;;;;8.35;4.57;;;102.40;2227.20;;;;;;5040396;28;20021;-80
2023/03/29 04:05:12;;;;;;;10.43;4.63;;;102.40;2227.20;;;;;;5038423;28;20029;-79
2023/03/29 04:07:38;;;;;;;11.75;6.53;;;77.70;2227.20;;;;;;5038473;28;20086;-79
2023/03/29 04:10:05;;;;;;;11.98;6.07;;;102.40;2227.20;;;;;;5038108;28;20427;-81
2023/03/29 04:12:30;;;;;;;15.43;6.70;;;102.40;2227.20;;;;;;5038479;28;20032;-78
2023/03/29 04:14:57;;;;;;;7.72;5.05;;;102.40;2227.20;;;;;;5037961;28;20025;-80
2023/03/29 04:17:23;;;;;;;9.63;5.57;;;77.70;2227.20;;;;;;5037493;28;20048;-80
2023/03/29 04:19:49;;;;;;;11.45;5.28;;;102.40;2227.20;;;;;;5038176;28;20025;-79
2023/03/29 04:22:15;;;;;;;13.32;6.78;;;77.70;2227.20;;;;;;5038384;28;20510;-78
2023/03/29 04:24:41;;;;;;;15.95;8.30;;;102.60;2227.20;;;;;;5038489;28;20029;-79
2023/03/29 04:27:07;;;;;;;26.92;15.50;;;102.60;2227.20;;;;;;5038391;28;20136;-80
2023/03/29 04:29:33;;;;;;;23.17;14.25;;;102.50;2227.20;;;;;;5038159;28;20353;-81
2023/03/29 04:31:59;;;;;;;29.50;18.33;;;102.40;2227.20;;;;;;5038179;28;20194;-81
2023/03/29 04:34:25;;;;;;;16.92;10.00;;;102.50;2227.20;;;;;;5037886;28;20032;-79
2023/03/29 04:36:51;;;;;;;13.40;7.93;;;102.50;2227.20;;;;;;5037332;28;20025;-80
2023/03/29 04:39:19;;;;;;;15.80;8.23;;;102.50;2227.20;;;;;;5037819;28;20025;-79
2023/03/29 04:41:46;;;;;;;10.57;6.60;;;102.50;2227.20;;;;;;5037373;28;20025;-82
2023/03/29 04:44:13;;;;;;;11.55;5.97;;;102.60;2227.20;;;;;;5038335;28;20029;-81
2023/03/29 04:46:39;;;;;;;8.13;5.85;;;102.60;2227.20;;;;;;5042632;28;20029;-84
2023/03/29 04:49:05;;;;;;;9.95;6.22;;;102.50;2227.20;;;;;;5042794;28;20024;-81
2023/03/29 04:51:32;;;;;;;12.63;7.45;;;102.50;2227.20;;;;;;5040953;28;20111;-85
2023/03/29 04:53:58;;;;;;;14.05;8.50;;;102.60;2227.20;;;;;;5041543;28;20372;-84
2023/03/29 04:56:25;;;;;;;14.10;6.57;;;102.60;2227.20;;;;;;5042379;28;20578;-83
2023/03/29 04:58:50;;;;;;;7.57;4.63;;;102.60;2227.20;;;;;;5042211;28;20098;-80
2023/03/29 05:01:16;;;;;;;8.80;4.85;;;102.60;2227.20;;;;;;5041035;28;20461;-80
2023/03/29 05:03:42;;;;;;;12.07;6.30;;;102.60;2227.20;;;;;;5036415;28;20043;-81
2023/03/29 05:06:10;;;;;;;17.50;8.68;;;102.60;2227.20;;;;;;5036341;28;20025;-79
2023/03/29 05:08:38;;;;;;;16.50;9.20;;;102.70;2227.20;;;;;;5036467;28;20025;-80
2023/03/29 05:11:09;;;;;;;9.27;5.32;;;102.60;2227.20;;;;;;5036259;28;20025;-82
2023/03/29 05:13:36;;;;;;;21.02;12.02;;;102.60;2227.20;;;;;;5036132;28;20029;-79
2023/03/29 05:16:03;;;;;;;16.40;9.02;;;102.70;2227.20;;;;;;5036145;28;20044;-81
2023/03/29 05:18:29;;;;;;;21.48;12.88;;;102.70;2227.20;;;;;;5035911;28;20040;-79
2023/03/29 05:20:56;;;;;;;26.08;13.77;;;102.70;2227.20;;;;;;5036315;28;20036;-80
2023/03/29 05:23:22;;;;;;;22.63;11.65;;;103.20;2227.20;;;;;;5036428;28;20033;-81
2023/03/29 05:25:48;;;;;;;16.35;9.13;;;102.70;2227.20;;;;;;5036036;28;20431;-80
2023/03/29 05:28:15;;;;;;;16.02;10.00;;;102.70;2227.20;;;;;;5036177;28;20033;-81
2023/03/29 05:30:41;;;;;;;16.35;9.43;;;102.60;2227.20;;;;;;5036131;28;20021;-79
2023/03/29 05:33:07;;;;;;;12.63;6.63;;;102.60;2227.20;;;;;;5035764;28;20080;-79
2023/03/29 05:35:34;;;;;;;15.70;7.60;;;102.70;2227.20;;;;;;5036072;28;20025;-80
2023/03/29 05:38:01;;;;;;;42.67;25.50;;;102.70;2227.20;;;;;;5036010;28;20037;-83
2023/03/29 05:40:27;;;;;;;14.07;7.85;;;102.70;2227.20;;;;;;5035477;28;20353;-81
2023/03/29 05:42:52;;;;;;;16.95;10.30;;;102.80;2227.20;;;;;;5036076;28;20032;-79
2023/03/29 05:45:19;;;;;;;13.90;6.95;;;102.80;2227.20;;;;;;5036021;28;20029;-81
2023/03/29 05:47:45;;;;;;;14.65;8.45;;;102.90;2227.20;;;;;;5035415;28;20037;-81
2023/03/29 05:50:11;;;;;;;9.85;5.70;;;102.90;2227.20;;;;;;5036012;28;20112;-79
2023/03/29 05:52:37;;;;;;;8.27;4.78;;;103.00;2227.20;;;;;;5035927;28;20029;-79
2023/03/29 05:55:04;;;;;;;10.02;6.07;;;102.80;2227.20;;;;;;5035790;28;20029;-81
2023/03/29 05:57:30;;;;;;;8.10;3.88;;;103.00;2227.20;;;;;;5035968;28;20044;-81
2023/03/29 05:59:56;;;;;;;14.55;6.32;;;103.10;2227.20;;;;;;5035556;28;20025;-80
2023/03/29 06:02:23;;;;;;;13.23;6.85;;;103.10;2227.20;;;;;;5035741;28;20032;-83
2023/03/29 06:04:50;;;;;;;12.18;6.00;;;103.20;2227.20;;;;;;5054070;28;20025;-79
2023/03/29 06:07:16;;;;;;;10.00;5.10;;;103.30;2227.20;;;;;;5035384;28;20124;-80
2023/03/29 06:09:43;;;;;;;15.77;7.70;;;103.20;2227.20;;;;;;5035757;28;20370;-83
2023/03/29 06:12:09;;;;;;;13.25;7.75;;;103.30;2227.20;;;;;;5035857;28;20029;-80
2023/03/29 06:14:36;;;;;;;9.23;5.15;;;128.00;2252.80;;;;;;5035361;28;20032;-81
2023/03/29 06:17:02;;;;;;;9.43;4.22;;;128.10;2252.80;;;;;;5035752;28;20477;-82
2023/03/29 06:19:28;;;;;;;12.52;6.03;;;128.20;2252.80;;;;;;5035736;28;20070;-84
2023/03/29 06:21:54;;;;;;;8.50;4.40;;;128.30;2252.80;;;;;;5035290;28;20021;-79
2023/03/29 06:24:19;;;;;;;11.57;6.97;;;128.20;2252.80;;;;;;5035640;28;20104;-83
2023/03/29 06:26:45;;;;;;;10.40;5.38;;;128.30;2252.80;;;;;;5037403;28;20476;-79
2023/03/29 06:29:11;;;;;;;7.88;4.72;;;128.40;2252.80;;;;;;5039105;28;20445;-82
2023/03/29 06:31:41;;;;;;;8.25;5.32;;;128.40;2252.80;;;;;;5039297;28;20077;-84
2023/03/29 06:34:06;;;;;;;10.27;5.32;;;128.40;2252.80;;;;;;5039005;28;20547;-82
2023/03/29 06:36:33;;;;;;;11.00;4.53;;;128.50;2252.80;;;;;;5038742;28;20033;-84
2023/03/29 06:39:07;;;;;;;9.02;4.53;;;128.60;2201.60;;;;;;5039272;28;20436;-83
2023/03/29 06:41:33;;;;;;;22.50;11.77;;;128.60;2201.60;;;;;;5042596;28;20033;-81
2023/03/29 06:43:59;;;;;;;13.05;6.40;;;128.70;2201.60;;;;;;5045227;28;20060;-83
2023/03/29 06:46:25;;;;;;;13.05;5.35;;;128.80;2201.60;;;;;;5040161;28;20075;-82
2023/03/29 06:48:52;;;;;;;6.72;3.85;;;128.80;2201.60;;;;;;5038645;28;20020;-84
2023/03/29 06:51:18;;;;;;;17.40;10.07;;;128.90;2227.20;;;;;;5039024;28;20025;-85
2023/03/29 06:53:43;;;;;;;22.40;12.73;;;128.90;2150.40;;;;;;5038861;28;20031;-83
2023/03/29 06:56:10;;;;;;;15.00;7.38;;;153.60;2176.00;;;;;;5038585;28;20029;-82
2023/03/29 06:58:36;;;;;;;10.02;5.65;;;153.60;2176.00;;;;;;5036932;28;20037;-85
2023/03/29 07:01:02;;;;;;;11.10;6.00;;;153.80;2150.40;;;;;;5038480;28;20033;-82
2023/03/29 07:03:28;;;;;;;8.38;4.90;;;153.80;2124.80;;;;;;5037236;28;20082;-82
2023/03/29 07:06:02;;;;;;;7.90;4.65;;;153.80;2150.40;;;;;;5038405;28;20029;-85
2023/03/29 07:08:33;;;;;;;10.95;4.57;;;153.90;2124.80;;;;;;5038632;28;20499;-81
2023/03/29 07:11:00;;;;;;;9.15;5.38;;;154.00;2150.40;;;;;;5038390;28;20025;-84
2023/03/29 07:13:26;;;;;;;6.63;4.18;;;154.10;2124.80;;;;;;5038362;28;20032;-82
2023/03/29 07:15:52;;;;;;;8.88;3.50;;;154.10;2124.80;;;;;;5038365;28;20362;-81
2023/03/29 07:18:18;;;;;;;4.22;2.90;;;154.10;2099.20;;;;;;5038086;28;20037;-82
2023/03/29 07:20:46;;;;;;;6.32;3.10;;;154.20;2099.20;;;;;;5038343;28;20028;-82
2023/03/29 07:23:12;;;;;;;9.10;4.40;;;154.20;2099.20;;;;;;5038151;28;20078;-81
2023/03/29 07:25:38;;;;;;;12.65;7.70;;;154.40;2073.60;;;;;;5037787;28;20024;-83
2023/03/29 07:28:05;;;;;;;10.02;4.72;;;154.40;2073.60;;;;;;5037421;28;20036;-80
2023/03/29 07:30:31;;;;;;;17.08;8.57;;;154.50;2099.20;;;;;;5038028;28;20132;-80
2023/03/29 07:32:57;;;;;;;13.25;6.82;;;154.50;2048.00;;;;;;5036473;28;20474;-82
2023/03/29 07:35:25;;;;;;;12.07;5.38;;;179.20;2048.00;;;;;;5037765;28;20025;-82
2023/03/29 07:37:51;;;;;;;12.00;6.45;;;179.20;2048.00;;;;;;5037254;28;20463;-80
2023/03/29 07:40:21;;;;;;;11.50;5.32;;;179.20;2022.40;;;;;;5037808;28;20033;-82
2023/03/29 07:42:50;;;;;;;10.73;6.78;;;179.30;2048.00;;;;;;5037602;28;20025;-82
2023/03/29 07:45:16;;;;;;;7.85;5.13;;;179.40;2022.40;;;;;;5037467;28;20120;-83
2023/03/29 07:47:48;;;;;;;8.85;4.65;;;179.40;2022.40;;;;;;5037660;28;20120;-84
2023/03/29 07:50:17;;;;;;;;;;;179.40;2048.00;;;;;;5038528;28;20427;-84
2023/03/29 07:52:43;;;;;;;8.93;4.80;;;179.50;1996.80;;;;;;5037345;28;19909;-83
2023/03/29 07:55:11;;;;;;;6.70;3.90;;;179.50;1996.80;;;;;;5037691;28;20025;-83
2023/03/29 07:57:37;;;;;;;7.93;5.60;;;179.40;1996.80;;;;;;5036694;28;20388;-83
2023/03/29 08:00:18;;;;;;;9.63;4.85;;;179.50;1996.80;;;;;;5050097;28;20016;-83
2023/03/29 08:02:46;;;;;;;8.27;5.63;;;179.60;2022.40;;;;;;5061583;28;20049;-84
2023/03/29 08:05:13;;;;;;;7.50;4.68;;;179.70;1996.80;;;;;;5078005;28;20021;-83
2023/03/29 08:07:40;;;;;;;8.82;4.97;;;179.70;1996.80;;;;;;5037585;28;20033;-82
2023/03/29 08:10:12;;;;;;;9.55;5.35;;;179.70;1996.80;;;;;;5037403;28;20461;-84
2023/03/29 08:12:39;;;;;;;9.15;4.13;;;179.70;1996.80;;;;;;5037283;28;20056;-81
2023/03/29 08:15:05;;;;;;;7.95;4.53;;;179.70;1996.80;;;;;;5036862;28;20053;-82
2023/03/29 08:17:32;;;;;;;6.68;4.20;;;179.80;1971.20;;;;;;5037254;28;20551;-88
2023/03/29 08:19:58;;;;;;;8.45;3.80;;;179.90;1996.80;;;;;;5037632;28;20475;-88
2023/03/29 08:22:25;;;;;;;7.95;5.30;;;179.80;1971.20;;;;;;5032994;28;20029;-87
2023/03/29 08:24:51;;;;;;;7.00;3.92;;;180.00;1971.20;;;;;;5036870;28;20461;-87
2023/03/29 08:27:17;;;;;;;5.78;3.47;;;180.10;1971.20;;;;;;5032813;28;20033;-88
2023/03/29 08:29:43;;;;;;;14.05;7.70;;;180.10;1945.60;;;;;;5017628;28;20460;-89
2023/03/29 08:32:10;;;;;;;18.15;9.85;;;180.10;1971.20;;;;;;5025454;28;20099;-87
2023/03/29 08:34:36;;;;;;;8.95;5.18;;;204.80;1971.20;;;;;;5027342;28;20059;-88
2023/03/29 08:37:03;;;;;;;11.95;6.40;;;204.80;1971.20;;;;;;5034550;28;20084;-88
2023/03/29 08:39:30;;;;;;;9.85;3.50;;;180.10;1920.00;;;;;;5029065;28;20026;-87
2023/03/29 08:42:23;;;;;;;14.23;6.72;;;180.00;1920.00;;;;;;5023590;28;20473;-88
2023/03/29 08:44:58;;;;;;;9.82;5.22;;;180.00;1945.60;;;;;;5033754;28;20037;-88
2023/03/29 08:47:53;;;;;;;12.60;5.22;;;180.00;1945.60;;;;;;5033667;28;20030;-88
2023/03/29 08:50:23;;;;;;;11.25;5.20;;;179.80;1920.00;;;;;;5019683;28;20036;-86
2023/03/29 08:52:56;;;;;;;6.60;4.13;;;180.00;1920.00;;;;;;5030147;28;20116;-87
2023/03/29 08:55:41;;;;;;;7.35;3.95;;;179.70;1920.00;;;;;;5027208;28;20032;-85
2023/03/29 08:58:23;;;;;;;11.02;4.55;;;180.10;1920.00;;;;;;5024329;28;20059;-85
2023/03/29 09:00:58;;;;;;;8.02;3.90;;;204.90;1920.00;;;;;;5016393;28;20030;-85
2023/03/29 09:03:32;;;;;;;8.27;4.47;;;204.90;1920.00;;;;;;5026976;28;20116;-87
2023/03/29 09:06:04;;;;;;;5.45;3.80;;;205.10;1894.40;;;;;;5023247;28;20134;-84
2023/03/29 09:08:30;;;;;;;9.20;5.03;;;205.20;1894.40;;;;;;5032779;28;20041;-88
2023/03/29 09:11:17;;;;;;;7.30;4.00;;;205.20;1920.00;;;;;;5030378;28;20075;-87
2023/03/29 09:13:57;;;;;;;7.97;4.15;;;205.30;1920.00;;;;;;5021081;28;20029;-86
2023/03/29 09:16:50;;;;;;;9.57;4.80;;;205.50;1868.80;;;;;;5018762;28;20380;-87
2023/03/29 09:19:36;;;;;;;11.07;6.50;;;205.50;1894.40;;;;;;5017491;28;20034;-86
2023/03/29 09:22:33;;;;;;;12.38;7.95;;;205.60;1868.80;;;;;;5032881;28;20025;-89
2023/03/29 09:25:37;;;;;;;10.23;5.65;;;205.70;1843.20;;;;;;5016387;28;20757;-90
2023/03/29 09:28:34;;;;;;;9.00;4.78;;;230.40;1868.80;;;;;;5022144;28;20037;-88
2023/03/29 09:31:20;;;;;;;8.43;4.43;;;230.60;1843.20;;;;;;5002262;28;20034;-87
2023/03/29 09:33:57;;;;;;;7.40;3.97;;;230.70;1894.40;;;;;;5036245;28;20476;-87
2023/03/29 09:36:47;;;;;;;15.27;8.43;;;230.70;1817.60;;;;;;5036251;28;20086;-87
2023/03/29 09:39:15;;;;;;;23.80;10.98;;;230.70;1843.20;;;;;;5027852;28;20488;-83
2023/03/29 09:41:56;;;;;;;9.23;4.97;;;230.80;1817.60;;;;;;5035813;28;20124;-87
2023/03/29 09:44:32;;;;;;;6.93;4.13;;;230.80;1817.60;;;;;;5038716;28;20037;-85
2023/03/29 09:47:07;;;;;;;4.85;2.65;;;230.90;1817.60;;;;;;5033380;28;20028;-84
2023/03/29 09:49:42;;;;;;;6.80;3.40;;;230.90;1843.20;;;;;;5022656;28;20519;-83
2023/03/29 09:52:15;;;;;;;6.30;4.35;;;230.90;1792.00;;;;;;5023615;28;20041;-81
2023/03/29 09:54:41;;;;;;;7.60;4.25;;;231.10;1843.20;;;;;;5015797;28;20091;-81
2023/03/29 09:57:12;;;;;;;9.95;4.57;;;231.10;1894.40;;;;;;5031753;28;20030;-83
2023/03/29 09:59:38;;;;;;;6.90;3.35;;;231.20;1766.40;;;;;;5022953;28;20025;-86
2023/03/29 10:02:07;;;;;;;10.45;4.43;;;231.30;1740.80;;;;;;5028108;28;20127;-83
2023/03/29 10:04:34;;;;;;;6.57;4.07;;;256.10;1740.80;;;;;;5052468;28;20032;-83
2023/03/29 10:07:00;;;;;;;9.65;4.60;;;256.10;1715.20;;;;;;5040453;28;20399;-83
2023/03/29 10:09:29;;;;;;;6.22;3.92;;;256.20;1740.80;;;;;;5051291;28;20048;-83
2023/03/29 10:12:03;;;;;;;7.65;4.13;;;256.30;1766.40;;;;;;5028792;28;20369;-83
2023/03/29 10:14:40;;;;;;;10.55;3.30;;;256.50;1740.80;;;;;;5025222;28;20022;-86
2023/03/29 10:17:18;;;;;;;7.90;3.88;;;256.60;1740.80;;;;;;5035850;28;20025;-85
2023/03/29 10:19:54;;;;;;;8.15;4.05;;;256.30;1715.20;;;;;;5027716;28;20159;-87
2023/03/29 10:22:36;;;;;;;7.75;4.63;;;256.20;1740.80;;;;;;5026342;28;20175;-85
2023/03/29 10:25:03;;;;;;;8.85;3.88;;;256.10;1740.80;;;;;;5036005;28;20029;-86
2023/03/29 10:27:33;;;;;;;7.35;3.35;;;256.00;1715.20;;;;;;5036730;28;20025;-86
2023/03/29 10:30:06;;;;;;;10.90;4.40;;;256.00;1740.80;;;;;;5029828;28;20110;-86
2023/03/29 10:32:33;;;;;;;;;;;256.20;1740.80;;;;;;5024575;28;20054;-85
2023/03/29 10:35:26;;;;;;;7.95;4.22;;;256.50;1740.80;;;;;;5037696;28;20344;-85
2023/03/29 10:37:56;;;;;;;10.82;5.43;;;256.50;1740.80;;;;;;5030665;28;20132;-86
2023/03/29 10:40:30;;;;;;;7.03;3.88;;;256.50;1715.20;;;;;;5039051;28;20400;-85
2023/03/29 10:43:10;;;;;;;5.45;3.28;;;256.50;1715.20;;;;;;5031074;28;20032;-87
2023/03/29 10:45:37;;;;;;;5.88;3.00;;;256.50;1715.20;;;;;;5051724;28;20025;-87
2023/03/29 10:48:05;;;;;;;6.43;3.42;;;256.70;1740.80;;;;;;5038569;28;20032;-87
2023/03/29 10:50:34;;;;;;;21.95;8.20;;;256.80;1689.60;;;;;;5038835;28;20107;-86
2023/03/29 10:53:01;;;;;;;9.38;4.35;;;256.90;1664.00;;;;;;5038729;28;20025;-86
2023/03/29 10:55:50;;;;;;;6.03;3.28;;;281.90;1689.60;;;;;;5032705;28;20034;-86
2023/03/29 10:58:23;;;;;;;12.23;3.67;;;281.90;1664.00;;;;;;5049303;28;20025;-90
2023/03/29 11:00:55;;;;;;;8.77;4.65;;;282.50;1664.00;;;;;;5037799;28;20021;-90
2023/03/29 11:03:43;;;;;;;5.28;3.05;;;307.70;1689.60;;;;;;5023560;28;20025;-85
2023/03/29 11:06:33;;;;;;;5.93;2.97;;;;;;;;;;5026432;28;20036;-85
2023/03/29 11:09:01;;;;;;;4.90;2.58;;;;;;;;;;5034391;28;20025;-83
2023/03/29 11:11:40;;;;;;;5.93;2.90;;;;;;;;;;5018079;28;20060;-82
2023/03/29 11:14:32;;;;;;;5.93;3.75;;;;;;;;;;5029183;28;20032;-80
2023/03/29 11:17:04;;;;;;;13.98;5.68;;;;;;;;;;5018400;28;20044;-81
2023/03/29 11:19:42;;;;;;;7.28;4.53;;;;;;;;;;5031567;28;20485;-82
2023/03/29 11:22:12;;;;;;;9.52;5.75;;;;;;;;;;5029582;28;20025;-83
2023/03/29 11:25:06;;;;;;;6.85;3.95;;;333.40;1587.20;;;;;;5022046;28;20026;-83
2023/03/29 11:27:57;;;;;;;7.30;3.88;;;;;;;;;;5024268;28;20083;-82
2023/03/29 11:30:38;;;;;;;13.43;8.82;;;358.80;1561.60;;;;;;5037645;28;20029;-81
2023/03/29 11:33:19;;;;;;;7.45;4.20;;;359.00;1536.00;;;;;;5017859;28;20440;-79
2023/03/29 11:36:22;;;;;;;5.82;3.17;;;358.90;1536.00;;;;;;5035824;28;20048;-80
2023/03/29 11:39:08;;;;;;;8.38;4.50;;;358.40;1689.60;;;;;;5035488;28;20041;-84
2023/03/29 11:41:38;;;;;;;8.15;5.03;;;333.70;1536.00;;;;;;5022827;28;20029;-85
2023/03/29 11:44:23;;;;;;;5.80;3.03;;;358.60;1510.40;;;;;;5038063;28;20048;-86
2023/03/29 11:46:55;;;;;;;6.85;3.30;;;358.90;1536.00;;;;;;5023706;28;20061;-86
2023/03/29 11:49:30;;;;;;;6.43;3.50;;;384.00;1638.40;;;;;;5035584;28;20119;-85
2023/03/29 11:52:21;;;;;;;8.63;3.33;;;384.10;1561.60;;;;;;5044235;28;20040;-83
2023/03/29 11:54:56;;;;;;;33.33;20.65;;;359.10;1459.20;;;;;;5036916;28;20025;-85
2023/03/29 11:57:34;;;;;;;64.95;41.50;;;;;;;;;;5037953;28;20037;-84
2023/03/29 12:00:08;;;;;;;30.98;19.85;;;409.70;1510.40;;;;;;5036138;28;20192;-84
2023/03/29 12:03:01;;;;;;;12.80;8.90;;;409.70;1484.80;;;;;;5054826;28;20028;-84
2023/03/29 12:05:42;;;;;;;10.35;6.05;;;410.20;1484.80;;;;;;5038635;28;20032;-85
2023/03/29 12:08:21;;;;;;;6.32;4.00;;;409.80;1433.60;;;;;;5055605;28;20036;-83
2023/03/29 12:10:55;;;;;;;9.85;4.70;;;410.00;1510.40;;;;;;5040896;28;20026;-84
2023/03/29 12:13:27;;;;;;;10.27;5.07;;;410.20;1433.60;;;;;;5037194;28;20159;-86
2023/03/29 12:16:20;;;;;;;7.32;4.55;;;410.20;1433.60;;;;;;5054856;28;20388;-85
2023/03/29 12:18:48;;;;;;;12.93;9.30;;;410.40;1433.60;;;;;;5037660;28;20067;-86
2023/03/29 12:21:23;;;;;;;7.45;4.15;;;435.30;1459.20;;;;;;5054730;28;20025;-87
2023/03/29 12:23:49;;;;;;;9.90;5.55;;;410.40;1382.40;;;;;;5054017;28;20108;-84
2023/03/29 12:27:00;;;;;;;9.18;5.70;;;410.50;1459.20;;;;;;5054982;28;20385;-84
2023/03/29 12:30:00;;;;;;;5.43;3.38;;;410.50;1408.00;;;;;;5037212;28;20064;-83
2023/03/29 12:32:47;;;;;;;12.55;8.13;;;410.50;1382.40;;;;;;5016619;28;20054;-85
2023/03/29 12:35:33;;;;;;;12.02;7.47;;;410.50;1382.40;;;;;;5016579;28;20168;-85
2023/03/29 12:38:18;;;;;;;26.40;16.15;;;410.20;1408.00;;;;;;5034871;28;20116;-85
2023/03/29 12:40:54;;;;;;;9.90;5.82;;;435.50;1433.60;;;;;;5017397;28;20136;-84